Pagina principală
METAR-TAF:

METAR-TAF

Aeroporturi :

Jim Kelly Field

Lexington, Nebraska, Statele Unite ale Americii

Latitudine: 40-47-28N, longitudine: 099-46-38W, elevație: 736 m

Observații meteo curente

Raportul a fost făcut în urmă cu 1 oră și 27 de minute, la 12:55 UTC
Vânt 13 kt de la Nord cu rafale de până la 18 kt
Temperatură 4°C
Umiditate 81%
Presiune 1022 hPa
Vizibilitate: 16.1 km
Total acoperit la o înălțime de 8000 picior

METAR: KLXN 181255Z AUTO 01013G18KT 10SM OVC080 04/01 A3019 RMK AO2 T00400010

Ora: 09:22 (14:22 UTC)


TAF: lipsă

Observații și prognoze meteo pentru peste 4.000 de aeroporturi (rapoarte METAR și TAF).

Stațiile disponibile sunt reprezentate pe hartă prin puncte galbene și roșii.

Țineți indicatorul mouse-ului pe punctul dorit pentru a vedea denumirea stației.

Apoi, faceți clic pentru a vedea observațiile și prognozele meteorologice.

Pentru a schimba harta: Pentru mărire, faceți clic pe butoanele verzi cu cruce neagră; pentru micșorare, pe butonul verde cu o liniuță; pentru hărți învecinate, pe săgețile verzi.


METAR-TAF: